Time;durP1;ratioP1;P1;durP2;ratioP2;P2;SDS_P1;SDS_P2;PMS_P1;PMS_P2;Temp;Humidity;BMP_temperature;BMP_pressure;BME280_temperature;BME280_humidity;BME280_pressure;Samples;Min_cycle;Max_cycle;Signal;HPM_P1;HPM_P2
2022/03/23 00:00:43;;;;;;;37.50;15.80;;;2.30;91.80;;;;;;5031707;28;20205;-68
2022/03/23 00:03:10;;;;;;;32.23;13.90;;;2.30;92.00;;;;;;5031636;28;20193;-67
2022/03/23 00:05:41;;;;;;;34.00;14.63;;;2.30;91.90;;;;;;5013919;28;20188;-67
2022/03/23 00:08:08;;;;;;;35.53;15.03;;;2.30;91.90;;;;;;5031641;28;20218;-68
2022/03/23 00:10:34;;;;;;;33.30;15.33;;;2.20;92.40;;;;;;5013460;28;20194;-67
2022/03/23 00:13:02;;;;;;;49.73;20.13;;;2.10;92.50;;;;;;5031618;28;20200;-67
2022/03/23 00:15:28;;;;;;;40.40;18.97;;;2.00;93.50;;;;;;5031345;28;20192;-67
2022/03/23 00:17:54;;;;;;;43.90;18.77;;;1.90;94.00;;;;;;5034799;28;20196;-68
2022/03/23 00:20:20;;;;;;;36.90;17.00;;;1.80;95.00;;;;;;5017168;28;20178;-67
2022/03/23 00:22:46;;;;;;;42.70;19.30;;;1.60;95.20;;;;;;5035088;28;20265;-67
2022/03/23 00:25:14;;;;;;;45.30;19.67;;;1.50;95.70;;;;;;5017201;28;20180;-66
2022/03/23 00:27:40;;;;;;;46.73;19.63;;;1.40;96.70;;;;;;5034937;28;20685;-67
2022/03/23 00:30:07;;;;;;;48.87;19.87;;;1.40;97.50;;;;;;5034967;28;20646;-67
2022/03/23 00:32:34;;;;;;;48.87;21.57;;;1.40;98.00;;;;;;5034843;28;20224;-67
2022/03/23 00:35:01;;;;;;;58.53;22.40;;;1.40;98.40;;;;;;5033361;28;20179;-67
2022/03/23 00:37:26;;;;;;;51.20;21.50;;;1.40;99.00;;;;;;5014386;28;20181;-66
2022/03/23 00:39:52;;;;;;;53.70;23.90;;;1.30;99.10;;;;;;5014901;28;20326;-66
2022/03/23 00:42:18;;;;;;;74.13;24.40;;;1.30;99.60;;;;;;5013566;28;20652;-66
2022/03/23 00:44:44;;;;;;;60.17;24.73;;;1.20;99.90;;;;;;5015227;28;20607;-66
2022/03/23 00:47:10;;;;;;;68.73;24.10;;;1.10;99.90;;;;;;5013638;28;20216;-68
2022/03/23 00:49:37;;;;;;;62.03;23.47;;;1.00;99.90;;;;;;5014751;28;20238;-68
2022/03/23 00:52:07;;;;;;;58.77;22.83;;;0.90;99.90;;;;;;5013680;28;20183;-67
2022/03/23 00:54:37;;;;;;;56.17;22.80;;;0.90;99.90;;;;;;5014447;28;20192;-67
2022/03/23 00:57:07;;;;;;;53.77;21.70;;;1.00;99.90;;;;;;5014732;28;20284;-67
2022/03/23 00:59:34;;;;;;;48.63;22.80;;;1.10;99.90;;;;;;5014853;28;20179;-67
2022/03/23 01:02:00;;;;;;;51.40;21.77;;;1.10;99.90;;;;;;5014389;28;20577;-67
2022/03/23 01:04:26;;;;;;;52.90;22.60;;;1.00;99.90;;;;;;5014496;28;20183;-67
2022/03/23 01:06:52;;;;;;;51.07;21.13;;;0.80;99.90;;;;;;5014340;28;20254;-67
2022/03/23 01:09:23;;;;;;;59.43;22.43;;;0.70;99.90;;;;;;5012324;28;20607;-66
2022/03/23 01:11:55;;;;;;;48.30;21.33;;;0.60;99.90;;;;;;5014455;28;20245;-67
2022/03/23 01:14:23;;;;;;;46.40;21.30;;;0.50;99.90;;;;;;5014266;28;20179;-65
2022/03/23 01:16:51;;;;;;;52.40;21.60;;;0.50;99.90;;;;;;5014003;28;20274;-66
2022/03/23 01:19:20;;;;;;;49.33;21.90;;;0.40;99.90;;;;;;5012814;28;20283;-66
2022/03/23 01:21:45;;;;;;;47.57;21.60;;;0.30;99.90;;;;;;5013031;28;20614;-66
2022/03/23 01:24:11;;;;;;;50.43;20.83;;;0.20;99.90;;;;;;5014158;28;20279;-68
2022/03/23 01:26:38;;;;;;;52.40;21.80;;;0.10;99.90;;;;;;5013730;28;20206;-66
2022/03/23 01:29:04;;;;;;;52.40;20.50;;;0.10;99.90;;;;;;5014231;28;20266;-67
2022/03/23 01:31:33;;;;;;;54.37;22.47;;;0.10;99.90;;;;;;5013829;28;20184;-67
2022/03/23 01:33:59;;;;;;;50.37;21.53;;;0.00;99.90;;;;;;5014073;28;20338;-67
2022/03/23 01:36:29;;;;;;;57.60;20.87;;;0.10;99.90;;;;;;5026816;28;20265;-66
2022/03/23 01:38:56;;;;;;;53.47;20.43;;;0.00;99.90;;;;;;5016223;28;20179;-66
2022/03/23 01:41:22;;;;;;;48.07;20.23;;;0.00;99.90;;;;;;5033343;28;20603;-67
2022/03/23 01:43:48;;;;;;;50.37;20.27;;;0.00;99.90;;;;;;5033787;28;20655;-66
2022/03/23 01:46:20;;;;;;;45.57;19.43;;;0.00;99.90;;;;;;5015177;28;20286;-66
2022/03/23 01:48:46;;;;;;;41.20;18.80;;;0.00;99.90;;;;;;5033333;28;20241;-66
2022/03/23 01:51:13;;;;;;;42.30;19.10;;;0.10;99.90;;;;;;5015597;28;20602;-65
2022/03/23 01:53:40;;;;;;;43.83;19.57;;;0.10;99.90;;;;;;5033988;28;20171;-67
2022/03/23 01:56:07;;;;;;;43.37;19.53;;;0.00;99.90;;;;;;5033494;28;20179;-67
2022/03/23 01:58:33;;;;;;;49.53;19.27;;;0.00;99.90;;;;;;5032470;28;20206;-66
2022/03/23 02:00:59;;;;;;;46.23;19.90;;;0.00;99.90;;;;;;5033768;28;20210;-66
2022/03/23 02:03:26;;;;;;;49.90;20.17;;;-0.10;99.90;;;;;;5016113;28;20545;-66
2022/03/23 02:05:51;;;;;;;40.53;18.47;;;-0.10;99.90;;;;;;5033361;28;20572;-66
2022/03/23 02:08:17;;;;;;;47.93;18.90;;;-0.10;99.90;;;;;;5015282;28;20666;-66
2022/03/23 02:10:43;;;;;;;45.87;19.47;;;-0.10;99.90;;;;;;5032828;28;20191;-66
2022/03/23 02:13:11;;;;;;;41.70;16.57;;;-0.10;99.90;;;;;;5033161;28;20627;-67
2022/03/23 02:15:38;;;;;;;44.37;17.57;;;0.00;99.90;;;;;;5033036;28;20278;-66
2022/03/23 02:18:06;;;;;;;49.93;18.07;;;0.00;99.90;;;;;;5033302;28;20548;-66
2022/03/23 02:20:32;;;;;;;46.53;18.37;;;0.10;99.90;;;;;;5032710;28;20507;-66
2022/03/23 02:22:58;;;;;;;45.43;17.20;;;0.10;99.90;;;;;;5033145;28;20175;-66
2022/03/23 02:25:27;;;;;;;46.87;16.60;;;0.10;99.90;;;;;;5014880;28;20538;-66
2022/03/23 02:27:54;;;;;;;43.57;16.63;;;0.10;99.90;;;;;;5032442;28;20211;-66
2022/03/23 02:30:21;;;;;;;38.93;16.53;;;0.20;99.90;;;;;;5014758;28;20201;-66
2022/03/23 02:32:48;;;;;;;36.27;15.33;;;0.20;99.90;;;;;;5032868;28;20273;-66
2022/03/23 02:35:15;;;;;;;33.63;15.00;;;0.30;99.90;;;;;;5028349;28;20222;-65
2022/03/23 02:37:41;;;;;;;41.47;16.23;;;0.40;99.90;;;;;;5013015;28;20192;-66
2022/03/23 02:40:08;;;;;;;32.93;15.63;;;0.30;99.90;;;;;;5011361;28;20229;-67
2022/03/23 02:42:35;;;;;;;35.43;15.90;;;0.30;99.90;;;;;;5012343;28;20187;-65
2022/03/23 02:45:00;;;;;;;32.40;12.20;;;0.20;99.90;;;;;;5012524;28;20659;-66
2022/03/23 02:47:26;;;;;;;32.53;14.43;;;0.30;99.90;;;;;;5011058;28;20215;-67
2022/03/23 02:49:52;;;;;;;39.77;12.40;;;0.40;99.90;;;;;;5012468;28;20615;-66
2022/03/23 02:52:17;;;;;;;38.50;14.67;;;0.40;99.90;;;;;;5012351;28;20171;-66
2022/03/23 03:03:06;;;;;;;25.67;10.00;;;0.80;99.90;;;;;;5012428;28;20175;-67
2022/03/23 03:05:32;;;;;;;28.63;11.63;;;0.80;99.90;;;;;;5011302;28;20179;-66
2022/03/23 03:10:41;;;;;;;25.97;10.97;;;0.90;99.90;;;;;;5011500;28;20199;-66
2022/03/23 03:13:07;;;;;;;24.37;10.23;;;1.00;99.90;;;;;;5010927;28;20188;-66
2022/03/23 03:15:34;;;;;;;29.57;10.47;;;1.10;99.90;;;;;;5012463;28;20196;-67
2022/03/23 03:18:00;;;;;;;32.43;11.23;;;1.20;99.90;;;;;;5012317;28;20219;-67
2022/03/23 03:20:27;;;;;;;30.23;11.67;;;1.10;99.90;;;;;;5011933;28;20179;-66
2022/03/23 03:22:53;;;;;;;27.50;11.03;;;1.10;99.90;;;;;;5011905;28;20587;-67
2022/03/23 03:25:22;;;;;;;26.97;10.87;;;1.10;99.90;;;;;;5011746;28;20262;-66
2022/03/23 03:27:48;;;;;;;36.13;11.53;;;1.00;99.90;;;;;;5010629;28;20221;-66
2022/03/23 03:30:16;;;;;;;22.20;10.43;;;0.90;99.90;;;;;;5011669;28;20548;-66
2022/03/23 03:32:43;;;;;;;26.07;8.97;;;0.90;99.90;;;;;;5010801;28;20188;-67
2022/03/23 03:35:09;;;;;;;33.33;11.33;;;0.90;99.90;;;;;;5014925;28;20238;-66
2022/03/23 03:37:37;;;;;;;24.83;10.37;;;0.90;99.90;;;;;;4997396;28;20195;-66
2022/03/23 03:40:07;;;;;;;23.40;10.07;;;1.10;99.90;;;;;;5031716;28;20179;-66
2022/03/23 03:42:33;;;;;;;24.57;8.53;;;1.00;99.90;;;;;;5031209;28;20552;-66
2022/03/23 03:44:59;;;;;;;24.17;9.70;;;1.20;99.90;;;;;;5031226;28;20178;-66
2022/03/23 03:47:25;;;;;;;20.83;8.77;;;1.20;99.90;;;;;;5031150;28;20219;-66
2022/03/23 03:49:51;;;;;;;25.17;8.80;;;1.10;99.90;;;;;;5013759;28;20690;-68
2022/03/23 03:52:20;;;;;;;28.70;9.33;;;1.00;99.90;;;;;;5033200;28;20267;-67
2022/03/23 03:54:46;;;;;;;31.67;9.03;;;1.00;99.90;;;;;;5035679;28;20308;-65
2022/03/23 03:57:12;;;;;;;30.00;9.43;;;0.90;99.90;;;;;;5035224;28;20269;-65
2022/03/23 03:59:38;;;;;;;23.93;9.37;;;0.80;99.90;;;;;;5017715;28;20186;-66
2022/03/23 04:02:04;;;;;;;22.47;8.77;;;0.90;99.90;;;;;;5035139;28;20201;-66
2022/03/23 04:04:30;;;;;;;20.00;8.33;;;0.90;99.90;;;;;;5017456;28;20191;-66
2022/03/23 04:06:56;;;;;;;28.10;9.30;;;1.00;99.90;;;;;;5035366;28;20578;-67
2022/03/23 04:09:23;;;;;;;23.93;8.70;;;1.20;99.90;;;;;;5017244;28;20176;-66
2022/03/23 04:11:48;;;;;;;21.50;8.23;;;1.20;99.90;;;;;;5034977;28;20188;-66
2022/03/23 04:14:15;;;;;;;28.37;10.03;;;1.20;99.90;;;;;;5017212;28;20266;-67
2022/03/23 04:16:41;;;;;;;19.97;8.77;;;1.10;99.90;;;;;;5017351;28;20190;-68
2022/03/23 04:19:07;;;;;;;23.17;9.37;;;1.00;99.90;;;;;;5035196;28;20176;-67
2022/03/23 04:21:33;;;;;;;21.20;8.70;;;1.00;99.90;;;;;;5034810;28;20727;-66
2022/03/23 04:23:59;;;;;;;26.47;9.70;;;0.90;99.90;;;;;;5034961;28;20291;-67
2022/03/23 04:26:25;;;;;;;17.87;8.00;;;0.80;99.90;;;;;;5034683;28;20266;-68
2022/03/23 04:28:51;;;;;;;23.83;9.10;;;0.80;99.90;;;;;;5034727;28;20624;-67
2022/03/23 04:31:17;;;;;;;26.67;9.33;;;0.90;99.90;;;;;;5034519;28;20212;-67
2022/03/23 04:33:43;;;;;;;21.27;9.00;;;1.00;99.90;;;;;;5000627;28;20265;-67
2022/03/23 04:36:09;;;;;;;24.27;9.70;;;1.00;99.90;;;;;;5013363;28;20295;-66
2022/03/23 04:38:35;;;;;;;23.57;9.63;;;1.10;99.90;;;;;;5014454;28;20276;-67
2022/03/23 04:41:02;;;;;;;21.03;9.30;;;1.10;99.90;;;;;;5015009;28;20196;-68
2022/03/23 04:43:28;;;;;;;26.10;9.87;;;1.20;99.90;;;;;;5014569;28;20264;-67
2022/03/23 04:45:54;;;;;;;29.40;9.97;;;1.30;99.90;;;;;;5014286;28;20586;-67
2022/03/23 04:48:20;;;;;;;24.97;9.93;;;1.40;99.90;;;;;;5012748;28;20228;-67
2022/03/23 04:50:48;;;;;;;48.73;11.43;;;1.50;99.90;;;;;;5014119;28;20201;-68
2022/03/23 04:53:15;;;;;;;26.80;10.43;;;1.70;99.90;;;;;;5014277;28;20253;-67
2022/03/23 04:55:40;;;;;;;22.93;9.30;;;1.90;99.90;;;;;;5014356;28;20173;-67
2022/03/23 04:58:06;;;;;;;27.07;9.00;;;2.00;99.90;;;;;;5014359;28;20188;-67
2022/03/23 05:00:33;;;;;;;25.00;9.97;;;2.20;99.90;;;;;;5013923;28;20185;-67
2022/03/23 05:02:59;;;;;;;27.53;9.43;;;2.40;99.90;;;;;;5013904;28;20178;-67
2022/03/23 05:05:24;;;;;;;23.93;9.03;;;2.50;99.90;;;;;;5012716;28;20281;-67
2022/03/23 05:07:50;;;;;;;25.37;9.30;;;2.60;99.90;;;;;;5013851;28;20217;-68
2022/03/23 05:10:16;;;;;;;21.83;9.63;;;2.70;99.90;;;;;;4996162;28;20194;-66
2022/03/23 05:12:43;;;;;;;26.83;8.27;;;2.80;99.90;;;;;;5013841;28;20194;-67
2022/03/23 05:15:10;;;;;;;25.63;10.37;;;3.00;99.90;;;;;;5013600;28;20194;-67
2022/03/23 05:17:37;;;;;;;25.93;9.43;;;3.10;99.90;;;;;;5013218;28;20698;-67
2022/03/23 05:20:04;;;;;;;33.03;10.17;;;3.20;99.90;;;;;;5013593;28;20184;-65
2022/03/23 05:22:30;;;;;;;18.07;7.43;;;3.30;99.90;;;;;;5013289;28;20557;-67
2022/03/23 05:24:56;;;;;;;31.93;8.63;;;3.50;99.90;;;;;;5012069;28;20200;-68
2022/03/23 05:27:22;;;;;;;17.47;7.47;;;3.70;99.90;;;;;;5013100;28;20211;-66
2022/03/23 05:29:48;;;;;;;28.13;9.57;;;3.90;99.90;;;;;;5013268;28;20559;-67
2022/03/23 05:32:17;;;;;;;24.93;8.27;;;4.10;99.80;;;;;;5012487;28;20190;-68
2022/03/23 05:34:48;;;;;;;36.87;9.90;;;4.20;99.40;;;;;;5012021;28;20194;-66
2022/03/23 05:37:14;;;;;;;21.90;9.23;;;4.40;99.40;;;;;;5013010;28;20230;-66
2022/03/23 05:39:40;;;;;;;21.50;9.23;;;4.60;98.70;;;;;;5012330;28;20184;-68
2022/03/23 05:42:07;;;;;;;28.53;9.30;;;4.70;98.40;;;;;;5011356;28;20228;-67
2022/03/23 05:44:33;;;;;;;29.10;8.83;;;4.80;98.50;;;;;;5012678;28;20176;-67
2022/03/23 05:46:59;;;;;;;22.83;8.67;;;5.00;97.90;;;;;;5010754;28;20300;-68
2022/03/23 05:49:25;;;;;;;18.33;8.23;;;5.10;97.50;;;;;;5011707;28;20243;-67
2022/03/23 05:51:52;;;;;;;22.57;7.20;;;5.30;97.20;;;;;;5012491;28;20208;-68
2022/03/23 05:54:18;;;;;;;18.70;8.17;;;5.50;96.60;;;;;;5010913;28;20543;-66
2022/03/23 05:56:44;;;;;;;24.50;8.97;;;5.60;96.00;;;;;;4994727;28;20679;-69
2022/03/23 05:59:10;;;;;;;25.13;7.70;;;5.70;95.80;;;;;;5011037;28;20180;-70
2022/03/23 06:01:36;;;;;;;24.13;7.33;;;5.80;95.40;;;;;;5010404;28;20742;-65
2022/03/23 06:04:02;;;;;;;20.63;7.30;;;5.90;95.00;;;;;;5012436;28;20178;-75
2022/03/23 06:06:28;;;;;;;18.00;6.93;;;6.10;94.90;;;;;;5009685;28;20504;-70
2022/03/23 06:08:54;;;;;;;20.83;7.87;;;6.20;94.50;;;;;;5021408;28;20212;-74
2022/03/23 06:11:20;;;;;;;19.47;7.80;;;6.30;94.40;;;;;;5002981;28;20205;-62
2022/03/23 06:13:45;;;;;;;20.93;8.97;;;6.40;93.90;;;;;;5020376;28;20198;-64
2022/03/23 06:16:11;;;;;;;17.23;7.40;;;6.50;93.80;;;;;;5021161;28;20201;-62
2022/03/23 06:18:38;;;;;;;23.10;7.50;;;6.60;93.40;;;;;;5020282;28;20668;-75
2022/03/23 06:21:04;;;;;;;22.70;7.37;;;6.70;93.20;;;;;;5004124;28;20532;-62
2022/03/23 06:23:31;;;;;;;29.27;8.50;;;6.80;92.80;;;;;;5019918;28;20243;-63
2022/03/23 06:25:56;;;;;;;22.70;6.97;;;6.90;92.40;;;;;;5020797;28;20188;-74
2022/03/23 06:28:23;;;;;;;23.27;6.90;;;7.00;92.00;;;;;;5002729;28;20214;-76
2022/03/23 06:30:52;;;;;;;28.50;7.73;;;7.10;91.80;;;;;;5020622;28;20190;-75
2022/03/23 06:33:19;;;;;;;20.97;7.90;;;7.20;91.80;;;;;;5020415;28;20238;-77
2022/03/23 06:35:45;;;;;;;22.60;8.37;;;7.20;91.50;;;;;;5019994;28;20542;-76
2022/03/23 06:38:12;;;;;;;43.97;9.03;;;7.40;91.30;;;;;;5019664;28;20191;-77
2022/03/23 06:40:38;;;;;;;24.53;9.23;;;7.40;91.20;;;;;;5020406;28;20183;-77
2022/03/23 06:43:03;;;;;;;27.73;9.40;;;7.50;90.90;;;;;;5022537;28;20194;-76
2022/03/23 06:45:30;;;;;;;33.50;9.33;;;7.60;90.80;;;;;;5021287;28;20264;-77
2022/03/23 06:47:56;;;;;;;17.17;8.10;;;7.70;90.80;;;;;;5021597;28;20314;-75
2022/03/23 06:50:22;;;;;;;20.57;8.30;;;7.80;90.50;;;;;;5003663;28;20195;-78
2022/03/23 06:52:48;;;;;;;43.03;10.10;;;7.80;90.60;;;;;;5023755;28;20198;-77
2022/03/23 06:55:14;;;;;;;19.03;9.17;;;7.90;90.70;;;;;;5002107;28;20203;-76
2022/03/23 06:57:39;;;;;;;32.43;11.17;;;8.00;90.60;;;;;;5003598;28;20202;-74
2022/03/23 07:00:13;;;;;;;30.17;10.63;;;8.10;90.50;;;;;;5022041;28;20194;-75
2022/03/23 07:02:40;;;;;;;26.63;9.90;;;8.10;90.30;;;;;;5020394;28;20528;-78
2022/03/23 07:05:06;;;;;;;23.23;10.70;;;8.30;90.40;;;;;;5012422;28;20187;-78
2022/03/23 07:07:32;;;;;;;22.67;9.93;;;8.30;90.10;;;;;;5020561;28;20602;-76
2022/03/23 07:09:58;;;;;;;26.67;10.60;;;8.40;90.00;;;;;;5022357;28;20202;-76
2022/03/23 07:12:23;;;;;;;24.77;10.97;;;8.50;89.50;;;;;;5023512;28;20199;-76
2022/03/23 07:14:49;;;;;;;26.87;10.20;;;8.60;89.10;;;;;;5020649;28;20188;-78
2022/03/23 07:17:16;;;;;;;33.17;11.43;;;8.70;88.70;;;;;;5018332;28;20263;-72
2022/03/23 07:19:42;;;;;;;23.97;11.60;;;8.70;88.90;;;;;;5020664;28;20219;-76
2022/03/23 07:22:08;;;;;;;27.10;11.93;;;8.80;88.50;;;;;;5023527;28;20247;-74
2022/03/23 07:24:34;;;;;;;35.20;13.13;;;9.00;88.20;;;;;;5002435;28;20192;-74
2022/03/23 07:27:00;;;;;;;37.37;12.77;;;9.00;88.00;;;;;;5015745;28;20674;-77
2022/03/23 07:29:25;;;;;;;35.43;11.97;;;9.20;87.80;;;;;;5016024;28;20204;-78
2022/03/23 07:31:51;;;;;;;29.23;12.40;;;9.30;87.10;;;;;;5026981;28;20187;-77
2022/03/23 07:34:19;;;;;;;28.00;12.47;;;9.40;87.00;;;;;;5009785;28;20616;-77
2022/03/23 07:36:46;;;;;;;31.10;11.80;;;9.50;86.70;;;;;;4990469;28;20382;-78
2022/03/23 07:39:19;;;;;;;28.53;12.90;;;9.50;86.40;;;;;;5026801;28;20215;-77
2022/03/23 07:41:45;;;;;;;32.17;12.93;;;9.60;85.80;;;;;;5028789;28;20257;-78
2022/03/23 07:44:12;;;;;;;37.40;13.57;;;9.70;85.80;;;;;;5023937;28;20187;-78
2022/03/23 07:46:37;;;;;;;39.17;13.73;;;9.80;85.30;;;;;;5013094;28;20200;-77
2022/03/23 07:49:03;;;;;;;30.80;12.50;;;9.90;84.80;;;;;;4995828;28;20666;-76
2022/03/23 07:51:29;;;;;;;30.03;12.50;;;9.90;84.60;;;;;;5005539;28;20602;-77
2022/03/23 07:53:54;;;;;;;31.17;12.43;;;10.00;84.40;;;;;;4974168;28;20669;-79
2022/03/23 07:56:20;;;;;;;31.33;13.13;;;10.20;84.40;;;;;;5009572;28;20270;-77
2022/03/23 07:58:46;;;;;;;34.47;14.70;;;10.30;83.70;;;;;;5000412;28;20191;-78
2022/03/23 08:01:13;;;;;;;34.70;13.37;;;10.30;82.90;;;;;;5008553;28;20201;-79
2022/03/23 08:03:39;;;;;;;30.47;14.27;;;10.40;82.40;;;;;;5000797;28;20212;-77
2022/03/23 08:06:05;;;;;;;35.03;14.87;;;10.50;81.90;;;;;;4994003;28;20253;-78
2022/03/23 08:08:31;;;;;;;37.07;14.57;;;10.60;81.70;;;;;;5000567;28;20557;-78
2022/03/23 08:10:56;;;;;;;32.63;12.93;;;10.60;81.30;;;;;;5006814;28;20194;-77
2022/03/23 08:13:22;;;;;;;29.57;13.17;;;10.80;81.00;;;;;;5004231;28;20188;-78
2022/03/23 08:15:48;;;;;;;36.90;13.80;;;10.90;80.40;;;;;;5003406;28;20248;-78
2022/03/23 08:18:17;;;;;;;33.40;14.63;;;11.00;79.70;;;;;;4999482;28;20274;-78
2022/03/23 08:20:43;;;;;;;30.70;13.40;;;11.20;79.40;;;;;;5004883;28;20195;-78
2022/03/23 08:23:11;;;;;;;25.40;12.77;;;11.30;78.90;;;;;;5005591;28;20194;-78
2022/03/23 08:25:38;;;;;;;25.90;11.80;;;11.50;77.60;;;;;;4993848;28;20224;-76
2022/03/23 08:28:08;;;;;;;23.60;10.80;;;11.60;75.80;;;;;;5004154;28;20213;-79
2022/03/23 08:30:34;;;;;;;33.30;11.57;;;11.70;75.20;;;;;;5002950;28;20197;-79
2022/03/23 08:33:02;;;;;;;26.07;11.57;;;11.90;74.80;;;;;;5004939;28;20194;-78
2022/03/23 08:35:28;;;;;;;24.93;11.37;;;12.10;73.70;;;;;;5008117;28;20186;-80
2022/03/23 08:37:54;;;;;;;31.83;11.20;;;12.20;72.10;;;;;;5007838;28;20205;-79
2022/03/23 08:40:20;;;;;;;29.27;12.17;;;12.20;71.30;;;;;;5014189;28;20285;-77
2022/03/23 08:42:46;;;;;;;23.67;12.83;;;12.30;72.30;;;;;;5010370;28;20650;-78
2022/03/23 08:45:13;;;;;;;26.93;13.60;;;12.40;71.60;;;;;;5003012;28;20197;-79
2022/03/23 08:47:39;;;;;;;27.77;13.33;;;12.40;72.10;;;;;;5011418;28;20287;-79
2022/03/23 08:50:10;;;;;;;30.30;12.70;;;12.50;72.00;;;;;;5021007;28;20673;-76
2022/03/23 08:52:36;;;;;;;33.33;14.60;;;12.60;71.40;;;;;;5032509;28;20182;-78
2022/03/23 08:55:25;;;;;;;35.37;14.67;;;12.80;70.50;;;;;;5021635;28;20198;-79
2022/03/23 08:57:51;;;;;;;30.57;12.30;;;12.90;69.40;;;;;;5030178;28;20244;-76
2022/03/23 09:00:17;;;;;;;28.27;12.40;;;13.10;68.30;;;;;;5010767;28;20656;-77
2022/03/23 09:02:43;;;;;;;34.77;13.23;;;13.20;67.10;;;;;;5030445;28;20182;-80
2022/03/23 09:05:14;;;;;;;37.43;14.23;;;13.30;67.60;;;;;;5022018;28;20191;-81
2022/03/23 09:07:41;;;;;;;26.30;10.30;;;13.40;67.30;;;;;;5031510;28;20633;-80
2022/03/23 09:10:08;;;;;;;26.83;11.07;;;13.50;63.70;;;;;;5022346;28;20187;-78
2022/03/23 09:12:34;;;;;;;31.87;11.30;;;13.60;63.10;;;;;;5032312;28;20650;-80
2022/03/23 09:15:00;;;;;;;41.00;12.53;;;13.70;63.90;;;;;;5021245;28;20599;-80
2022/03/23 09:17:26;;;;;;;30.20;11.27;;;13.80;63.00;;;;;;5013798;28;20195;-79
2022/03/23 09:19:52;;;;;;;27.70;10.87;;;13.90;62.50;;;;;;5032364;28;20187;-78
2022/03/23 09:22:18;;;;;;;29.27;10.63;;;13.90;62.50;;;;;;5032713;28;20268;-79
2022/03/23 09:24:44;;;;;;;21.27;9.10;;;14.00;61.70;;;;;;5018549;28;20659;-77
2022/03/23 09:27:09;;;;;;;19.70;9.20;;;14.00;60.80;;;;;;5015136;28;20225;-80
2022/03/23 09:29:35;;;;;;;27.93;9.40;;;14.00;60.60;;;;;;5019107;28;20213;-78
2022/03/23 09:32:01;;;;;;;18.70;8.03;;;14.10;60.20;;;;;;5032228;28;20238;-82
2022/03/23 09:34:26;;;;;;;24.87;10.00;;;14.20;59.30;;;;;;5018705;28;20194;-77
2022/03/23 09:39:36;;;;;;;20.47;9.00;;;14.40;58.10;;;;;;5018297;28;20532;-79
2022/03/23 09:42:05;;;;;;;33.23;9.77;;;14.30;58.20;;;;;;5032876;28;20191;-80
2022/03/23 09:44:32;;;;;;;30.53;10.23;;;14.40;58.20;;;;;;5018349;28;20179;-80
2022/03/23 09:46:58;;;;;;;33.93;13.03;;;14.60;58.20;;;;;;5014446;28;20199;-78
2022/03/23 09:49:25;;;;;;;30.23;12.27;;;14.80;55.90;;;;;;5017899;28;20236;-78
2022/03/23 09:51:53;;;;;;;19.77;10.37;;;15.00;53.50;;;;;;5033393;28;20631;-79
2022/03/23 09:54:22;;;;;;;25.87;12.37;;;15.10;52.50;;;;;;5019135;28;20210;-80
2022/03/23 09:56:51;;;;;;;25.23;11.33;;;15.20;52.40;;;;;;5031679;28;20189;-78
2022/03/23 09:59:17;;;;;;;39.47;12.17;;;15.30;52.00;;;;;;5031461;28;20197;-79
2022/03/23 10:02:18;;;;;;;38.50;13.37;;;15.30;51.40;;;;;;5026537;28;20193;-77
2022/03/23 10:04:49;;;;;;;25.63;12.63;;;15.30;50.80;;;;;;5018727;28;20319;-77
2022/03/23 10:07:22;;;;;;;31.60;13.50;;;15.50;49.90;;;;;;5032037;28;20216;-79
2022/03/23 10:10:25;;;;;;;26.73;13.90;;;15.50;49.40;;;;;;5018230;28;20592;-79
2022/03/23 10:13:28;;;;;;;20.70;12.73;;;15.70;48.30;;;;;;5028647;28;20183;-79
2022/03/23 10:16:35;;;;;;;19.17;12.60;;;15.80;47.80;;;;;;5025732;28;20194;-80
2022/03/23 10:19:01;;;;;;;26.50;13.63;;;15.70;46.60;;;;;;4983032;28;20208;-80
2022/03/23 10:21:39;;;;;;;28.93;14.30;;;15.60;46.70;;;;;;5029668;28;20186;-79
2022/03/23 10:24:04;;;;;;;29.97;17.37;;;15.70;46.40;;;;;;5017005;28;20194;-79
2022/03/23 10:26:33;;;;;;;35.93;18.43;;;15.90;45.20;;;;;;5030407;28;20263;-79
2022/03/23 10:28:59;;;;;;;42.33;19.30;;;16.00;44.80;;;;;;5018608;28;20305;-77
2022/03/23 10:31:27;;;;;;;33.30;18.60;;;16.10;45.00;;;;;;5027746;28;20670;-80
2022/03/23 10:34:07;;;;;;;31.20;18.80;;;16.20;45.10;;;;;;5019329;28;20242;-82
2022/03/23 10:36:39;;;;;;;35.10;17.53;;;16.20;44.70;;;;;;5033469;28;20204;-80
2022/03/23 10:39:10;;;;;;;33.93;16.57;;;16.30;45.00;;;;;;5020509;28;20254;-81
2022/03/23 10:41:36;;;;;;;25.33;14.07;;;16.30;44.50;;;;;;5031812;28;20244;-78
2022/03/23 10:44:03;;;;;;;23.43;13.83;;;16.30;43.40;;;;;;5018488;28;20651;-79
2022/03/23 10:46:28;;;;;;;22.50;12.73;;;16.30;42.30;;;;;;5030653;28;20194;-73
2022/03/23 10:49:06;;;;;;;28.00;14.37;;;16.30;42.50;;;;;;5019539;28;20255;-79
2022/03/23 10:51:36;;;;;;;29.33;14.50;;;16.30;44.20;;;;;;5014318;28;20279;-80
2022/03/23 10:54:18;;;;;;;29.03;14.20;;;16.40;44.60;;;;;;5017937;28;20579;-80
2022/03/23 10:56:44;;;;;;;29.93;14.23;;;16.40;44.00;;;;;;5015693;28;20193;-76
2022/03/23 10:59:26;;;;;;;19.17;11.23;;;16.30;44.10;;;;;;5017219;28;20259;-77
2022/03/23 11:02:03;;;;;;;27.87;14.60;;;16.40;43.40;;;;;;5018422;28;20256;-77
2022/03/23 11:04:43;;;;;;;28.10;12.23;;;16.40;44.20;;;;;;5017510;28;20530;-71
2022/03/23 11:07:35;;;;;;;25.27;13.20;;;16.50;43.50;;;;;;5031381;28;20297;-80
2022/03/23 11:15:49;;;;;;;23.10;11.50;;;17.20;43.40;;;;;;5022292;28;20225;-77
2022/03/23 11:18:17;;;;;;;21.83;10.03;;;17.30;42.20;;;;;;5030903;28;20237;-79
2022/03/23 11:20:51;;;;;;;17.43;8.70;;;17.40;42.20;;;;;;5030150;28;20194;-78
2022/03/23 11:23:30;;;;;;;23.17;8.90;;;17.50;42.80;;;;;;5023206;28;20180;-78
2022/03/23 11:26:00;;;;;;;17.93;8.43;;;17.70;42.80;;;;;;5026973;28;20191;-77
2022/03/23 11:28:31;;;;;;;24.97;10.60;;;17.70;43.20;;;;;;5022751;28;20297;-79
2022/03/23 11:30:58;;;;;;;21.50;8.30;;;17.70;43.40;;;;;;5011414;28;20248;-80
2022/03/23 11:33:26;;;;;;;13.13;7.53;;;17.80;42.80;;;;;;5023937;28;20545;-80
2022/03/23 11:35:52;;;;;;;19.97;7.73;;;18.10;42.90;;;;;;5028828;28;20199;-70
2022/03/23 11:38:21;;;;;;;20.03;7.80;;;18.10;41.60;;;;;;5010807;28;20192;-73
2022/03/23 11:40:48;;;;;;;17.40;6.73;;;18.10;41.30;;;;;;5023565;28;20226;-72
2022/03/23 11:43:17;;;;;;;21.73;7.00;;;18.40;40.40;;;;;;5024209;28;20222;-74
2022/03/23 11:45:45;;;;;;;15.03;6.67;;;18.90;40.20;;;;;;5022893;28;20191;-73
2022/03/23 11:48:23;;;;;;;19.77;7.50;;;19.30;39.80;;;;;;5029507;28;20683;-74
2022/03/23 11:51:19;;;;;;;22.45;8.32;;;19.30;38.60;;;;;;5030711;28;20202;-74
2022/03/23 11:53:55;;;;;;;17.80;7.50;;;20.40;37.60;;;;;;5030076;28;20159;-74
2022/03/23 11:56:28;;;;;;;18.88;6.60;;;22.60;35.80;;;;;;5029899;28;20678;-71
2022/03/23 11:58:53;;;;;;;18.80;6.18;;;24.10;32.70;;;;;;5012832;28;20182;-72
2022/03/23 12:01:20;;;;;;;9.15;4.95;;;25.00;30.00;;;;;;5030067;28;20464;-73
2022/03/23 12:03:57;;;;;;;14.68;4.88;;;25.20;28.90;;;;;;5028847;28;20183;-69
2022/03/23 12:06:41;;;;;;;12.02;5.43;;;25.50;28.50;;;;;;5029003;28;20202;-74
2022/03/23 12:09:08;;;;;;;10.93;4.80;;;26.00;27.60;;;;;;5028987;28;20709;-73
2022/03/23 12:11:46;;;;;;;12.80;5.63;;;25.70;27.50;;;;;;5029013;28;20182;-66
2022/03/23 12:14:22;;;;;;;27.98;5.85;;;26.00;27.70;;;;;;5032488;28;20179;-72
2022/03/23 12:16:51;;;;;;;18.40;6.38;;;27.40;27.00;;;;;;5032834;28;20217;-71
2022/03/23 12:19:18;;;;;;;12.82;5.07;;;28.70;26.60;;;;;;5033474;28;20549;-72
2022/03/23 12:21:53;;;;;;;8.48;4.15;;;29.10;25.40;;;;;;5032934;28;20193;-72
2022/03/23 12:24:41;;;;;;;14.43;5.07;;;27.80;24.10;;;;;;5034128;28;20196;-71
2022/03/23 12:27:28;;;;;;;11.18;4.63;;;28.00;25.10;;;;;;5033494;28;20642;-73
2022/03/23 12:29:58;;;;;;;16.13;5.45;;;28.70;24.30;;;;;;5033150;28;20174;-72
2022/03/23 12:32:35;;;;;;;12.70;4.70;;;28.90;24.90;;;;;;5033532;28;20631;-70
2022/03/23 12:35:01;;;;;;;9.68;5.07;;;28.90;23.60;;;;;;5015565;28;20171;-72
2022/03/23 12:37:37;;;;;;;8.90;5.38;;;29.10;23.30;;;;;;5033709;28;20190;-72
2022/03/23 12:40:08;;;;;;;12.38;5.75;;;29.30;23.40;;;;;;5033546;28;20326;-72
2022/03/23 12:42:34;;;;;;;13.02;5.50;;;29.60;23.60;;;;;;5033672;28;20183;-70
2022/03/23 12:45:00;;;;;;;13.55;6.05;;;29.90;23.20;;;;;;5015726;28;20229;-71
2022/03/23 12:47:27;;;;;;;15.20;5.35;;;29.80;22.90;;;;;;5033589;28;20206;-71
2022/03/23 12:58:16;;;;;;;18.63;6.30;;;31.70;22.50;;;;;;5033286;28;20256;-72
2022/03/23 13:00:43;;;;;;;15.38;5.45;;;32.20;22.00;;;;;;5033201;28;20229;-71
2022/03/23 13:03:09;;;;;;;17.05;6.05;;;32.20;22.00;;;;;;5033575;28;20209;-71
2022/03/23 13:05:57;;;;;;;9.48;5.32;;;31.30;22.00;;;;;;5032598;28;20639;-71
2022/03/23 13:08:38;;;;;;;9.25;4.85;;;28.90;22.80;;;;;;5020187;28;20215;-72
2022/03/23 13:11:07;;;;;;;19.40;5.70;;;28.00;22.30;;;;;;5033269;28;20174;-72